sensor_id;sensor_type;location;lat;lon;timestamp;P1;durP1;ratioP1;P2;durP2;ratioP2
77872;SDS011;67068;52.116;4.440;2023-04-25T00:01:28;7.80;;;1.53;;
77872;SDS011;67068;52.116;4.440;2023-04-25T00:03:53;6.70;;;1.33;;
77872;SDS011;67068;52.116;4.440;2023-04-25T00:06:18;8.57;;;1.50;;
77872;SDS011;67068;52.116;4.440;2023-04-25T00:08:44;6.23;;;1.43;;
77872;SDS011;67068;52.116;4.440;2023-04-25T00:11:09;6.73;;;1.30;;
77872;SDS011;67068;52.116;4.440;2023-04-25T00:13:34;5.57;;;1.25;;
77872;SDS011;67068;52.116;4.440;2023-04-25T00:16:00;8.13;;;1.67;;
77872;SDS011;67068;52.116;4.440;2023-04-25T00:18:25;8.57;;;1.97;;
77872;SDS011;67068;52.116;4.440;2023-04-25T00:20:53;6.32;;;1.40;;
77872;SDS011;67068;52.116;4.440;2023-04-25T00:23:19;6.83;;;1.30;;
77872;SDS011;67068;52.116;4.440;2023-04-25T00:25:44;5.13;;;1.30;;
77872;SDS011;67068;52.116;4.440;2023-04-25T00:28:10;5.72;;;1.45;;
77872;SDS011;67068;52.116;4.440;2023-04-25T00:30:35;8.27;;;1.70;;
77872;SDS011;67068;52.116;4.440;2023-04-25T00:33:00;6.10;;;1.30;;
77872;SDS011;67068;52.116;4.440;2023-04-25T00:35:25;6.50;;;1.57;;
77872;SDS011;67068;52.116;4.440;2023-04-25T00:37:51;7.43;;;1.67;;
77872;SDS011;67068;52.116;4.440;2023-04-25T00:40:16;5.80;;;1.50;;
77872;SDS011;67068;52.116;4.440;2023-04-25T00:42:41;6.67;;;1.37;;
77872;SDS011;67068;52.116;4.440;2023-04-25T00:45:06;7.00;;;1.23;;
77872;SDS011;67068;52.116;4.440;2023-04-25T00:47:34;4.85;;;1.30;;
77872;SDS011;67068;52.116;4.440;2023-04-25T00:50:00;9.18;;;1.85;;
77872;SDS011;67068;52.116;4.440;2023-04-25T00:52:25;5.47;;;1.70;;
77872;SDS011;67068;52.116;4.440;2023-04-25T00:54:50;10.67;;;1.60;;
77872;SDS011;67068;52.116;4.440;2023-04-25T00:57:16;6.73;;;1.37;;
77872;SDS011;67068;52.116;4.440;2023-04-25T00:59:41;5.20;;;1.07;;
77872;SDS011;67068;52.116;4.440;2023-04-25T01:02:10;7.68;;;1.52;;
77872;SDS011;67068;52.116;4.440;2023-04-25T01:04:35;7.53;;;1.60;;
77872;SDS011;67068;52.116;4.440;2023-04-25T01:07:00;6.97;;;1.30;;
77872;SDS011;67068;52.116;4.440;2023-04-25T01:09:27;6.18;;;1.30;;
77872;SDS011;67068;52.116;4.440;2023-04-25T01:11:52;8.93;;;1.80;;
77872;SDS011;67068;52.116;4.440;2023-04-25T01:14:18;5.43;;;1.40;;
77872;SDS011;67068;52.116;4.440;2023-04-25T01:16:43;8.17;;;1.87;;
77872;SDS011;67068;52.116;4.440;2023-04-25T01:19:09;7.18;;;1.45;;
77872;SDS011;67068;52.116;4.440;2023-04-25T01:21:37;5.28;;;1.50;;
77872;SDS011;67068;52.116;4.440;2023-04-25T01:24:03;6.93;;;1.33;;
77872;SDS011;67068;52.116;4.440;2023-04-25T01:26:28;7.15;;;1.50;;
77872;SDS011;67068;52.116;4.440;2023-04-25T01:28:54;8.55;;;1.58;;
77872;SDS011;67068;52.116;4.440;2023-04-25T01:31:19;7.22;;;1.70;;
77872;SDS011;67068;52.116;4.440;2023-04-25T01:33:45;8.27;;;1.37;;
77872;SDS011;67068;52.116;4.440;2023-04-25T01:36:11;6.35;;;1.15;;
77872;SDS011;67068;52.116;4.440;2023-04-25T01:38:37;6.93;;;1.38;;
77872;SDS011;67068;52.116;4.440;2023-04-25T01:41:02;7.20;;;1.37;;
77872;SDS011;67068;52.116;4.440;2023-04-25T01:43:28;6.37;;;1.40;;
77872;SDS011;67068;52.116;4.440;2023-04-25T01:45:53;6.20;;;1.20;;
77872;SDS011;67068;52.116;4.440;2023-04-25T01:48:18;5.67;;;1.03;;
77872;SDS011;67068;52.116;4.440;2023-04-25T01:50:44;5.65;;;1.42;;
77872;SDS011;67068;52.116;4.440;2023-04-25T01:53:09;5.10;;;1.10;;
77872;SDS011;67068;52.116;4.440;2023-04-25T01:55:36;5.07;;;1.13;;
77872;SDS011;67068;52.116;4.440;2023-04-25T01:58:02;7.13;;;1.37;;
77872;SDS011;67068;52.116;4.440;2023-04-25T02:00:27;5.78;;;1.45;;
77872;SDS011;67068;52.116;4.440;2023-04-25T02:02:52;7.17;;;1.20;;
77872;SDS011;67068;52.116;4.440;2023-04-25T02:05:18;6.57;;;1.50;;
77872;SDS011;67068;52.116;4.440;2023-04-25T02:07:44;8.65;;;1.40;;
77872;SDS011;67068;52.116;4.440;2023-04-25T02:10:09;5.75;;;1.27;;
77872;SDS011;67068;52.116;4.440;2023-04-25T02:12:35;6.97;;;1.15;;
77872;SDS011;67068;52.116;4.440;2023-04-25T02:15:00;4.93;;;1.13;;
77872;SDS011;67068;52.116;4.440;2023-04-25T02:17:25;6.47;;;1.53;;
77872;SDS011;67068;52.116;4.440;2023-04-25T02:19:51;7.00;;;1.40;;
77872;SDS011;67068;52.116;4.440;2023-04-25T02:22:16;6.60;;;1.70;;
77872;SDS011;67068;52.116;4.440;2023-04-25T02:24:41;7.97;;;1.50;;
77872;SDS011;67068;52.116;4.440;2023-04-25T02:27:07;6.27;;;1.10;;
77872;SDS011;67068;52.116;4.440;2023-04-25T02:29:32;5.00;;;0.90;;
77872;SDS011;67068;52.116;4.440;2023-04-25T02:31:57;6.57;;;1.30;;
77872;SDS011;67068;52.116;4.440;2023-04-25T02:34:23;7.23;;;1.53;;
77872;SDS011;67068;52.116;4.440;2023-04-25T02:36:48;6.07;;;1.10;;
77872;SDS011;67068;52.116;4.440;2023-04-25T02:39:14;6.85;;;1.23;;
77872;SDS011;67068;52.116;4.440;2023-04-25T02:41:40;5.90;;;1.30;;
77872;SDS011;67068;52.116;4.440;2023-04-25T02:44:05;6.20;;;1.10;;
77872;SDS011;67068;52.116;4.440;2023-04-25T02:46:30;5.47;;;1.33;;
77872;SDS011;67068;52.116;4.440;2023-04-25T02:48:55;7.03;;;1.23;;
77872;SDS011;67068;52.116;4.440;2023-04-25T02:51:20;5.13;;;1.07;;
77872;SDS011;67068;52.116;4.440;2023-04-25T02:53:46;7.17;;;1.20;;
77872;SDS011;67068;52.116;4.440;2023-04-25T02:56:11;2.97;;;1.03;;
77872;SDS011;67068;52.116;4.440;2023-04-25T02:58:36;5.43;;;1.00;;
77872;SDS011;67068;52.116;4.440;2023-04-25T03:01:01;6.17;;;1.07;;
77872;SDS011;67068;52.116;4.440;2023-04-25T03:03:27;5.30;;;1.03;;
77872;SDS011;67068;52.116;4.440;2023-04-25T03:05:52;6.43;;;1.20;;
77872;SDS011;67068;52.116;4.440;2023-04-25T03:08:17;6.07;;;1.10;;
77872;SDS011;67068;52.116;4.440;2023-04-25T03:10:43;5.55;;;1.30;;
77872;SDS011;67068;52.116;4.440;2023-04-25T03:13:09;4.57;;;0.90;;
77872;SDS011;67068;52.116;4.440;2023-04-25T03:15:34;5.30;;;1.10;;
77872;SDS011;67068;52.116;4.440;2023-04-25T03:18:00;5.90;;;1.17;;
77872;SDS011;67068;52.116;4.440;2023-04-25T03:20:25;6.20;;;1.23;;
77872;SDS011;67068;52.116;4.440;2023-04-25T03:22:50;6.43;;;1.17;;
77872;SDS011;67068;52.116;4.440;2023-04-25T03:25:16;5.23;;;1.03;;
77872;SDS011;67068;52.116;4.440;2023-04-25T03:27:41;5.43;;;0.90;;
77872;SDS011;67068;52.116;4.440;2023-04-25T03:30:06;6.07;;;1.10;;
77872;SDS011;67068;52.116;4.440;2023-04-25T03:32:32;5.13;;;0.95;;
77872;SDS011;67068;52.116;4.440;2023-04-25T03:34:58;4.50;;;1.10;;
77872;SDS011;67068;52.116;4.440;2023-04-25T03:37:23;5.17;;;1.00;;
77872;SDS011;67068;52.116;4.440;2023-04-25T03:39:48;5.40;;;1.23;;
77872;SDS011;67068;52.116;4.440;2023-04-25T03:42:13;4.70;;;1.20;;
77872;SDS011;67068;52.116;4.440;2023-04-25T03:44:39;6.63;;;1.40;;
77872;SDS011;67068;52.116;4.440;2023-04-25T03:47:04;4.40;;;0.97;;
77872;SDS011;67068;52.116;4.440;2023-04-25T03:49:29;5.07;;;1.47;;
77872;SDS011;67068;52.116;4.440;2023-04-25T03:51:54;5.23;;;1.10;;
77872;SDS011;67068;52.116;4.440;2023-04-25T03:54:19;5.13;;;1.00;;
77872;SDS011;67068;52.116;4.440;2023-04-25T03:56:45;5.28;;;1.05;;
77872;SDS011;67068;52.116;4.440;2023-04-25T03:59:10;5.83;;;1.57;;
77872;SDS011;67068;52.116;4.440;2023-04-25T04:01:35;5.90;;;1.00;;
77872;SDS011;67068;52.116;4.440;2023-04-25T04:04:01;5.67;;;1.20;;
77872;SDS011;67068;52.116;4.440;2023-04-25T04:06:26;3.73;;;0.77;;
77872;SDS011;67068;52.116;4.440;2023-04-25T04:08:51;5.73;;;1.00;;
77872;SDS011;67068;52.116;4.440;2023-04-25T04:11:20;5.28;;;1.25;;
77872;SDS011;67068;52.116;4.440;2023-04-25T04:13:45;5.72;;;1.02;;
77872;SDS011;67068;52.116;4.440;2023-04-25T04:16:11;7.03;;;1.40;;
77872;SDS011;67068;52.116;4.440;2023-04-25T04:18:36;6.00;;;1.15;;
77872;SDS011;67068;52.116;4.440;2023-04-25T04:21:02;5.07;;;0.98;;
77872;SDS011;67068;52.116;4.440;2023-04-25T04:23:27;6.10;;;1.00;;
77872;SDS011;67068;52.116;4.440;2023-04-25T04:25:53;4.18;;;0.85;;
77872;SDS011;67068;52.116;4.440;2023-04-25T04:28:19;5.10;;;1.08;;
77872;SDS011;67068;52.116;4.440;2023-04-25T04:30:44;6.30;;;1.10;;
77872;SDS011;67068;52.116;4.440;2023-04-25T04:33:12;6.25;;;1.05;;
77872;SDS011;67068;52.116;4.440;2023-04-25T04:35:37;5.00;;;0.80;;
77872;SDS011;67068;52.116;4.440;2023-04-25T04:38:02;4.55;;;0.85;;
77872;SDS011;67068;52.116;4.440;2023-04-25T04:40:27;7.13;;;1.30;;
77872;SDS011;67068;52.116;4.440;2023-04-25T04:42:53;4.43;;;0.97;;
77872;SDS011;67068;52.116;4.440;2023-04-25T04:45:21;5.20;;;1.17;;
77872;SDS011;67068;52.116;4.440;2023-04-25T04:47:47;5.63;;;0.90;;
77872;SDS011;67068;52.116;4.440;2023-04-25T04:50:13;5.78;;;1.20;;
77872;SDS011;67068;52.116;4.440;2023-04-25T04:52:39;6.32;;;1.13;;
77872;SDS011;67068;52.116;4.440;2023-04-25T04:55:05;19.75;;;1.52;;
77872;SDS011;67068;52.116;4.440;2023-04-25T04:57:31;53.72;;;3.90;;
77872;SDS011;67068;52.116;4.440;2023-04-25T04:59:58;34.65;;;3.22;;
77872;SDS011;67068;52.116;4.440;2023-04-25T05:02:23;32.67;;;2.28;;
77872;SDS011;67068;52.116;4.440;2023-04-25T05:04:48;30.53;;;2.87;;
77872;SDS011;67068;52.116;4.440;2023-04-25T05:07:14;37.93;;;2.63;;
77872;SDS011;67068;52.116;4.440;2023-04-25T05:09:39;14.88;;;1.40;;
77872;SDS011;67068;52.116;4.440;2023-04-25T05:12:04;19.10;;;1.70;;
77872;SDS011;67068;52.116;4.440;2023-04-25T05:14:30;14.95;;;1.45;;
77872;SDS011;67068;52.116;4.440;2023-04-25T05:16:55;14.10;;;1.97;;
77872;SDS011;67068;52.116;4.440;2023-04-25T05:19:20;14.97;;;1.87;;
77872;SDS011;67068;52.116;4.440;2023-04-25T05:21:45;14.73;;;1.40;;
77872;SDS011;67068;52.116;4.440;2023-04-25T05:24:10;13.57;;;1.67;;
77872;SDS011;67068;52.116;4.440;2023-04-25T05:26:36;10.80;;;1.40;;
77872;SDS011;67068;52.116;4.440;2023-04-25T05:29:02;7.85;;;1.10;;
77872;SDS011;67068;52.116;4.440;2023-04-25T05:31:27;8.47;;;1.57;;
77872;SDS011;67068;52.116;4.440;2023-04-25T05:33:52;9.93;;;1.27;;
77872;SDS011;67068;52.116;4.440;2023-04-25T05:36:20;9.77;;;1.40;;
77872;SDS011;67068;52.116;4.440;2023-04-25T05:38:46;11.88;;;1.25;;
77872;SDS011;67068;52.116;4.440;2023-04-25T05:41:11;7.70;;;1.00;;
77872;SDS011;67068;52.116;4.440;2023-04-25T05:43:36;8.50;;;1.23;;
77872;SDS011;67068;52.116;4.440;2023-04-25T05:46:01;7.67;;;1.30;;
77872;SDS011;67068;52.116;4.440;2023-04-25T05:48:27;7.60;;;1.33;;
77872;SDS011;67068;52.116;4.440;2023-04-25T05:50:52;4.43;;;1.13;;
77872;SDS011;67068;52.116;4.440;2023-04-25T05:53:18;7.72;;;1.27;;
77872;SDS011;67068;52.116;4.440;2023-04-25T05:55:43;9.77;;;1.48;;
77872;SDS011;67068;52.116;4.440;2023-04-25T05:58:08;5.50;;;1.07;;
77872;SDS011;67068;52.116;4.440;2023-04-25T06:00:34;7.32;;;1.08;;
77872;SDS011;67068;52.116;4.440;2023-04-25T06:02:59;7.03;;;1.30;;
77872;SDS011;67068;52.116;4.440;2023-04-25T06:05:25;5.68;;;1.10;;
77872;SDS011;67068;52.116;4.440;2023-04-25T06:07:51;7.57;;;1.17;;
77872;SDS011;67068;52.116;4.440;2023-04-25T06:10:16;9.13;;;1.20;;
77872;SDS011;67068;52.116;4.440;2023-04-25T06:12:41;9.07;;;1.40;;
77872;SDS011;67068;52.116;4.440;2023-04-25T06:15:07;7.50;;;1.10;;
77872;SDS011;67068;52.116;4.440;2023-04-25T06:17:32;8.23;;;1.58;;
77872;SDS011;67068;52.116;4.440;2023-04-25T06:19:57;5.70;;;1.10;;
77872;SDS011;67068;52.116;4.440;2023-04-25T06:22:23;7.70;;;1.33;;
77872;SDS011;67068;52.116;4.440;2023-04-25T06:24:48;5.67;;;1.10;;
77872;SDS011;67068;52.116;4.440;2023-04-25T06:27:13;5.70;;;1.30;;
77872;SDS011;67068;52.116;4.440;2023-04-25T06:29:38;5.47;;;1.40;;
77872;SDS011;67068;52.116;4.440;2023-04-25T06:32:04;8.23;;;1.70;;
77872;SDS011;67068;52.116;4.440;2023-04-25T06:34:29;3.50;;;1.00;;
77872;SDS011;67068;52.116;4.440;2023-04-25T06:36:55;6.60;;;1.88;;
77872;SDS011;67068;52.116;4.440;2023-04-25T06:39:20;6.90;;;1.90;;
77872;SDS011;67068;52.116;4.440;2023-04-25T06:41:47;8.00;;;2.10;;
77872;SDS011;67068;52.116;4.440;2023-04-25T06:44:13;7.07;;;1.80;;
77872;SDS011;67068;52.116;4.440;2023-04-25T06:46:38;7.33;;;1.77;;
77872;SDS011;67068;52.116;4.440;2023-04-25T06:49:04;8.05;;;2.22;;
77872;SDS011;67068;52.116;4.440;2023-04-25T06:51:29;7.25;;;1.60;;
77872;SDS011;67068;52.116;4.440;2023-04-25T06:53:55;6.60;;;1.70;;
77872;SDS011;67068;52.116;4.440;2023-04-25T06:56:20;8.20;;;2.13;;
77872;SDS011;67068;52.116;4.440;2023-04-25T06:58:46;8.63;;;2.00;;
77872;SDS011;67068;52.116;4.440;2023-04-25T07:01:11;9.03;;;1.93;;
77872;SDS011;67068;52.116;4.440;2023-04-25T07:03:36;7.13;;;1.77;;
77872;SDS011;67068;52.116;4.440;2023-04-25T07:06:02;10.07;;;2.03;;
77872;SDS011;67068;52.116;4.440;2023-04-25T07:08:28;7.83;;;1.60;;
77872;SDS011;67068;52.116;4.440;2023-04-25T07:10:53;5.75;;;1.55;;
77872;SDS011;67068;52.116;4.440;2023-04-25T07:13:19;6.67;;;1.90;;
77872;SDS011;67068;52.116;4.440;2023-04-25T07:15:44;7.68;;;1.77;;
77872;SDS011;67068;52.116;4.440;2023-04-25T07:18:10;5.65;;;1.40;;
77872;SDS011;67068;52.116;4.440;2023-04-25T07:20:35;5.90;;;1.53;;
77872;SDS011;67068;52.116;4.440;2023-04-25T07:23:01;7.95;;;1.75;;
77872;SDS011;67068;52.116;4.440;2023-04-25T07:25:26;8.30;;;1.53;;
77872;SDS011;67068;52.116;4.440;2023-04-25T07:27:51;8.17;;;1.23;;
77872;SDS011;67068;52.116;4.440;2023-04-25T07:30:16;4.73;;;1.20;;
77872;SDS011;67068;52.116;4.440;2023-04-25T07:32:42;8.27;;;1.52;;
77872;SDS011;67068;52.116;4.440;2023-04-25T07:35:07;7.07;;;1.20;;
77872;SDS011;67068;52.116;4.440;2023-04-25T07:37:33;7.15;;;1.10;;
77872;SDS011;67068;52.116;4.440;2023-04-25T07:39:58;5.30;;;1.25;;
77872;SDS011;67068;52.116;4.440;2023-04-25T07:42:24;4.67;;;1.10;;
77872;SDS011;67068;52.116;4.440;2023-04-25T07:44:49;9.00;;;1.50;;
77872;SDS011;67068;52.116;4.440;2023-04-25T07:47:16;6.53;;;1.20;;
77872;SDS011;67068;52.116;4.440;2023-04-25T07:49:43;4.38;;;1.02;;
77872;SDS011;67068;52.116;4.440;2023-04-25T07:52:10;5.07;;;1.10;;
77872;SDS011;67068;52.116;4.440;2023-04-25T07:54:35;5.97;;;1.20;;
77872;SDS011;67068;52.116;4.440;2023-04-25T07:57:00;3.87;;;1.10;;
77872;SDS011;67068;52.116;4.440;2023-04-25T07:59:26;6.03;;;1.30;;
77872;SDS011;67068;52.116;4.440;2023-04-25T08:01:51;5.23;;;1.10;;
77872;SDS011;67068;52.116;4.440;2023-04-25T08:04:16;4.43;;;1.00;;
77872;SDS011;67068;52.116;4.440;2023-04-25T08:06:42;4.97;;;1.13;;
77872;SDS011;67068;52.116;4.440;2023-04-25T08:09:07;4.97;;;1.05;;
77872;SDS011;67068;52.116;4.440;2023-04-25T08:11:34;4.90;;;1.00;;
77872;SDS011;67068;52.116;4.440;2023-04-25T08:13:59;5.50;;;1.20;;
77872;SDS011;67068;52.116;4.440;2023-04-25T08:16:24;6.00;;;1.00;;
77872;SDS011;67068;52.116;4.440;2023-04-25T08:18:50;3.77;;;0.70;;
77872;SDS011;67068;52.116;4.440;2023-04-25T08:21:15;2.97;;;0.77;;
77872;SDS011;67068;52.116;4.440;2023-04-25T08:23:40;5.10;;;0.80;;
77872;SDS011;67068;52.116;4.440;2023-04-25T08:26:05;4.63;;;0.90;;
77872;SDS011;67068;52.116;4.440;2023-04-25T08:28:31;5.73;;;1.00;;
77872;SDS011;67068;52.116;4.440;2023-04-25T08:30:56;4.70;;;0.82;;
77872;SDS011;67068;52.116;4.440;2023-04-25T08:33:22;7.18;;;1.30;;
77872;SDS011;67068;52.116;4.440;2023-04-25T08:35:47;2.38;;;0.80;;
77872;SDS011;67068;52.116;4.440;2023-04-25T08:38:12;4.80;;;1.00;;
77872;SDS011;67068;52.116;4.440;2023-04-25T08:40:38;4.30;;;0.70;;
77872;SDS011;67068;52.116;4.440;2023-04-25T08:43:03;4.30;;;0.82;;
77872;SDS011;67068;52.116;4.440;2023-04-25T08:45:30;3.40;;;0.80;;
77872;SDS011;67068;52.116;4.440;2023-04-25T08:47:56;4.13;;;0.82;;
77872;SDS011;67068;52.116;4.440;2023-04-25T08:50:22;1.90;;;0.50;;
77872;SDS011;67068;52.116;4.440;2023-04-25T08:52:47;4.38;;;0.93;;
77872;SDS011;67068;52.116;4.440;2023-04-25T08:55:15;3.22;;;0.68;;
77872;SDS011;67068;52.116;4.440;2023-04-25T08:57:41;2.92;;;0.60;;
77872;SDS011;67068;52.116;4.440;2023-04-25T09:00:08;4.43;;;0.90;;
77872;SDS011;67068;52.116;4.440;2023-04-25T09:02:33;4.63;;;0.85;;
77872;SDS011;67068;52.116;4.440;2023-04-25T09:04:58;3.22;;;0.75;;
77872;SDS011;67068;52.116;4.440;2023-04-25T09:07:24;4.70;;;0.70;;
77872;SDS011;67068;52.116;4.440;2023-04-25T09:09:50;4.05;;;0.70;;
77872;SDS011;67068;52.116;4.440;2023-04-25T09:12:17;3.70;;;0.80;;
77872;SDS011;67068;52.116;4.440;2023-04-25T09:14:43;4.43;;;1.00;;
77872;SDS011;67068;52.116;4.440;2023-04-25T09:17:25;4.45;;;0.70;;
77872;SDS011;67068;52.116;4.440;2023-04-25T09:19:50;3.43;;;0.70;;
77872;SDS011;67068;52.116;4.440;2023-04-25T09:22:16;2.57;;;0.50;;
77872;SDS011;67068;52.116;4.440;2023-04-25T09:24:43;3.47;;;0.70;;
77872;SDS011;67068;52.116;4.440;2023-04-25T09:27:11;3.28;;;0.60;;
77872;SDS011;67068;52.116;4.440;2023-04-25T09:29:37;3.63;;;0.90;;
77872;SDS011;67068;52.116;4.440;2023-04-25T09:32:18;3.90;;;0.95;;
77872;SDS011;67068;52.116;4.440;2023-04-25T09:35:05;2.70;;;0.70;;
77872;SDS011;67068;52.116;4.440;2023-04-25T09:37:30;3.65;;;1.02;;
77872;SDS011;67068;52.116;4.440;2023-04-25T09:39:56;3.45;;;0.60;;
77872;SDS011;67068;52.116;4.440;2023-04-25T09:42:22;3.70;;;0.65;;
77872;SDS011;67068;52.116;4.440;2023-04-25T09:44:48;3.35;;;0.63;;
77872;SDS011;67068;52.116;4.440;2023-04-25T09:47:14;4.30;;;0.90;;
77872;SDS011;67068;52.116;4.440;2023-04-25T09:49:41;3.70;;;0.90;;
77872;SDS011;67068;52.116;4.440;2023-04-25T09:52:07;4.30;;;0.80;;
77872;SDS011;67068;52.116;4.440;2023-04-25T09:54:32;3.42;;;0.70;;
77872;SDS011;67068;52.116;4.440;2023-04-25T09:56:58;4.90;;;0.80;;
77872;SDS011;67068;52.116;4.440;2023-04-25T09:59:25;3.65;;;0.70;;
77872;SDS011;67068;52.116;4.440;2023-04-25T10:01:51;4.38;;;0.93;;
77872;SDS011;67068;52.116;4.440;2023-04-25T10:04:22;3.50;;;0.68;;
77872;SDS011;67068;52.116;4.440;2023-04-25T10:06:48;3.42;;;0.63;;
77872;SDS011;67068;52.116;4.440;2023-04-25T10:09:15;6.22;;;1.00;;
77872;SDS011;67068;52.116;4.440;2023-04-25T10:11:41;3.92;;;1.05;;
77872;SDS011;67068;52.116;4.440;2023-04-25T10:14:06;4.78;;;0.85;;
77872;SDS011;67068;52.116;4.440;2023-04-25T10:16:31;4.33;;;0.63;;
77872;SDS011;67068;52.116;4.440;2023-04-25T10:18:57;3.28;;;0.65;;
77872;SDS011;67068;52.116;4.440;2023-04-25T10:21:22;4.00;;;0.80;;
77872;SDS011;67068;52.116;4.440;2023-04-25T10:23:48;2.97;;;0.50;;
77872;SDS011;67068;52.116;4.440;2023-04-25T10:26:14;5.57;;;0.98;;
77872;SDS011;67068;52.116;4.440;2023-04-25T10:28:58;4.47;;;0.80;;
77872;SDS011;67068;52.116;4.440;2023-04-25T10:31:33;5.22;;;0.90;;
77872;SDS011;67068;52.116;4.440;2023-04-25T10:34:01;2.38;;;0.70;;
77872;SDS011;67068;52.116;4.440;2023-04-25T10:36:26;4.38;;;0.80;;
77872;SDS011;67068;52.116;4.440;2023-04-25T10:38:56;3.78;;;0.75;;
77872;SDS011;67068;52.116;4.440;2023-04-25T10:41:23;3.75;;;0.63;;
77872;SDS011;67068;52.116;4.440;2023-04-25T10:43:48;3.40;;;0.67;;
77872;SDS011;67068;52.116;4.440;2023-04-25T10:51:08;3.25;;;0.50;;
77872;SDS011;67068;52.116;4.440;2023-04-25T10:53:34;4.30;;;0.73;;
77872;SDS011;67068;52.116;4.440;2023-04-25T10:55:59;3.10;;;0.80;;
77872;SDS011;67068;52.116;4.440;2023-04-25T10:58:25;2.70;;;0.57;;
77872;SDS011;67068;52.116;4.440;2023-04-25T11:00:51;4.20;;;0.63;;
77872;SDS011;67068;52.116;4.440;2023-04-25T11:03:16;2.55;;;0.68;;
77872;SDS011;67068;52.116;4.440;2023-04-25T11:05:42;3.77;;;0.80;;
77872;SDS011;67068;52.116;4.440;2023-04-25T11:08:11;3.97;;;0.80;;
77872;SDS011;67068;52.116;4.440;2023-04-25T11:10:36;5.10;;;0.80;;
77872;SDS011;67068;52.116;4.440;2023-04-25T11:13:01;3.17;;;0.60;;
77872;SDS011;67068;52.116;4.440;2023-04-25T11:15:27;3.67;;;0.67;;
77872;SDS011;67068;52.116;4.440;2023-04-25T11:17:52;4.55;;;0.70;;
77872;SDS011;67068;52.116;4.440;2023-04-25T11:20:18;3.25;;;0.65;;
77872;SDS011;67068;52.116;4.440;2023-04-25T11:22:44;4.83;;;0.63;;
77872;SDS011;67068;52.116;4.440;2023-04-25T11:25:10;5.00;;;1.02;;
77872;SDS011;67068;52.116;4.440;2023-04-25T11:27:51;4.75;;;0.80;;
77872;SDS011;67068;52.116;4.440;2023-04-25T11:30:17;3.80;;;0.77;;
77872;SDS011;67068;52.116;4.440;2023-04-25T11:32:43;3.40;;;0.90;;
77872;SDS011;67068;52.116;4.440;2023-04-25T11:35:11;4.70;;;1.05;;
77872;SDS011;67068;52.116;4.440;2023-04-25T11:37:37;4.05;;;0.90;;
77872;SDS011;67068;52.116;4.440;2023-04-25T11:40:04;3.03;;;0.55;;
77872;SDS011;67068;52.116;4.440;2023-04-25T11:42:31;4.93;;;0.68;;
77872;SDS011;67068;52.116;4.440;2023-04-25T11:44:56;3.40;;;0.57;;
77872;SDS011;67068;52.116;4.440;2023-04-25T11:47:27;3.77;;;0.70;;
77872;SDS011;67068;52.116;4.440;2023-04-25T11:49:52;3.30;;;0.73;;
77872;SDS011;67068;52.116;4.440;2023-04-25T11:52:18;4.15;;;0.82;;
77872;SDS011;67068;52.116;4.440;2023-04-25T11:54:44;3.93;;;0.80;;
77872;SDS011;67068;52.116;4.440;2023-04-25T11:57:09;2.45;;;0.55;;
77872;SDS011;67068;52.116;4.440;2023-04-25T11:59:34;4.03;;;0.77;;
77872;SDS011;67068;52.116;4.440;2023-04-25T12:02:00;5.90;;;1.03;;
77872;SDS011;67068;52.116;4.440;2023-04-25T12:04:29;3.67;;;0.90;;
77872;SDS011;67068;52.116;4.440;2023-04-25T12:06:55;2.53;;;0.60;;
77872;SDS011;67068;52.116;4.440;2023-04-25T12:09:21;4.70;;;0.82;;
77872;SDS011;67068;52.116;4.440;2023-04-25T12:11:53;3.58;;;0.70;;
77872;SDS011;67068;52.116;4.440;2023-04-25T12:14:24;3.75;;;0.70;;
77872;SDS011;67068;52.116;4.440;2023-04-25T12:16:51;3.63;;;0.70;;
77872;SDS011;67068;52.116;4.440;2023-04-25T12:19:17;3.35;;;0.85;;
77872;SDS011;67068;52.116;4.440;2023-04-25T12:21:43;4.18;;;1.00;;
77872;SDS011;67068;52.116;4.440;2023-04-25T12:24:09;4.20;;;0.68;;
77872;SDS011;67068;52.116;4.440;2023-04-25T12:29:49;4.15;;;0.75;;
77872;SDS011;67068;52.116;4.440;2023-04-25T12:32:15;3.47;;;0.68;;
77872;SDS011;67068;52.116;4.440;2023-04-25T12:34:40;3.85;;;0.75;;
77872;SDS011;67068;52.116;4.440;2023-04-25T12:37:05;3.13;;;0.60;;
77872;SDS011;67068;52.116;4.440;2023-04-25T12:39:30;5.13;;;0.87;;
77872;SDS011;67068;52.116;4.440;2023-04-25T12:41:56;4.30;;;0.67;;
77872;SDS011;67068;52.116;4.440;2023-04-25T12:44:21;4.88;;;0.95;;
77872;SDS011;67068;52.116;4.440;2023-04-25T12:46:46;4.83;;;0.70;;
77872;SDS011;67068;52.116;4.440;2023-04-25T12:49:12;3.13;;;0.63;;
77872;SDS011;67068;52.116;4.440;2023-04-25T12:51:37;3.10;;;0.65;;
77872;SDS011;67068;52.116;4.440;2023-04-25T12:54:03;4.47;;;0.63;;
77872;SDS011;67068;52.116;4.440;2023-04-25T12:56:29;4.65;;;0.73;;
77872;SDS011;67068;52.116;4.440;2023-04-25T12:58:54;3.95;;;0.70;;
77872;SDS011;67068;52.116;4.440;2023-04-25T13:01:20;3.05;;;0.55;;
77872;SDS011;67068;52.116;4.440;2023-04-25T13:03:46;4.03;;;0.80;;
77872;SDS011;67068;52.116;4.440;2023-04-25T13:06:12;4.47;;;0.60;;
77872;SDS011;67068;52.116;4.440;2023-04-25T13:08:38;3.78;;;0.52;;
77872;SDS011;67068;52.116;4.440;2023-04-25T13:11:04;3.42;;;0.60;;
77872;SDS011;67068;52.116;4.440;2023-04-25T13:13:29;5.45;;;0.70;;
77872;SDS011;67068;52.116;4.440;2023-04-25T13:15:56;5.05;;;0.85;;
77872;SDS011;67068;52.116;4.440;2023-04-25T13:18:22;2.42;;;0.40;;
77872;SDS011;67068;52.116;4.440;2023-04-25T13:20:51;5.20;;;0.70;;
77872;SDS011;67068;52.116;4.440;2023-04-25T13:23:16;3.10;;;0.63;;
77872;SDS011;67068;52.116;4.440;2023-04-25T13:25:41;3.17;;;0.50;;
77872;SDS011;67068;52.116;4.440;2023-04-25T13:28:06;3.13;;;0.80;;
77872;SDS011;67068;52.116;4.440;2023-04-25T13:30:32;4.50;;;0.80;;
77872;SDS011;67068;52.116;4.440;2023-04-25T13:32:57;4.78;;;0.80;;
77872;SDS011;67068;52.116;4.440;2023-04-25T13:35:27;4.28;;;0.70;;
77872;SDS011;67068;52.116;4.440;2023-04-25T13:37:53;2.17;;;0.50;;
77872;SDS011;67068;52.116;4.440;2023-04-25T13:40:18;5.97;;;0.93;;
77872;SDS011;67068;52.116;4.440;2023-04-25T13:42:43;3.93;;;0.77;;
77872;SDS011;67068;52.116;4.440;2023-04-25T13:45:10;4.75;;;0.80;;
77872;SDS011;67068;52.116;4.440;2023-04-25T13:47:35;3.65;;;0.70;;
77872;SDS011;67068;52.116;4.440;2023-04-25T13:50:00;3.93;;;1.00;;
77872;SDS011;67068;52.116;4.440;2023-04-25T13:52:28;4.53;;;0.88;;
77872;SDS011;67068;52.116;4.440;2023-04-25T13:54:53;3.72;;;0.60;;
77872;SDS011;67068;52.116;4.440;2023-04-25T13:57:18;3.13;;;0.70;;
77872;SDS011;67068;52.116;4.440;2023-04-25T13:59:44;5.25;;;0.73;;
77872;SDS011;67068;52.116;4.440;2023-04-25T14:02:14;4.85;;;1.08;;
77872;SDS011;67068;52.116;4.440;2023-04-25T14:04:40;4.15;;;0.98;;
77872;SDS011;67068;52.116;4.440;2023-04-25T14:07:05;2.10;;;0.75;;
77872;SDS011;67068;52.116;4.440;2023-04-25T14:09:30;5.20;;;0.80;;
77872;SDS011;67068;52.116;4.440;2023-04-25T14:11:55;2.53;;;0.83;;
77872;SDS011;67068;52.116;4.440;2023-04-25T14:14:21;3.85;;;0.77;;
77872;SDS011;67068;52.116;4.440;2023-04-25T14:16:47;4.00;;;0.68;;
77872;SDS011;67068;52.116;4.440;2023-04-25T14:19:16;4.75;;;0.98;;
77872;SDS011;67068;52.116;4.440;2023-04-25T14:21:42;4.72;;;1.05;;
77872;SDS011;67068;52.116;4.440;2023-04-25T14:24:08;5.78;;;1.00;;
77872;SDS011;67068;52.116;4.440;2023-04-25T14:26:33;5.68;;;0.85;;
77872;SDS011;67068;52.116;4.440;2023-04-25T14:28:59;4.07;;;0.80;;
77872;SDS011;67068;52.116;4.440;2023-04-25T14:31:24;3.80;;;1.13;;
77872;SDS011;67068;52.116;4.440;2023-04-25T14:33:50;4.00;;;1.10;;
77872;SDS011;67068;52.116;4.440;2023-04-25T14:36:15;5.47;;;1.00;;
77872;SDS011;67068;52.116;4.440;2023-04-25T14:38:40;4.32;;;0.88;;
77872;SDS011;67068;52.116;4.440;2023-04-25T14:41:06;5.90;;;1.13;;
77872;SDS011;67068;52.116;4.440;2023-04-25T14:43:31;6.17;;;1.37;;
77872;SDS011;67068;52.116;4.440;2023-04-25T14:45:56;3.57;;;0.80;;
77872;SDS011;67068;52.116;4.440;2023-04-25T14:48:21;7.47;;;1.20;;